Time;durP1;ratioP1;P1;durP2;ratioP2;P2;SDS_P1;SDS_P2;PMS_P1;PMS_P2;Temp;Humidity;BMP_temperature;BMP_pressure;BME280_temperature;BME280_humidity;BME280_pressure;Samples;Min_cycle;Max_cycle;Signal;HPM_P1;HPM_P2
2024/03/17 00:00:30;;;;;;;4.32;2.97;;;;;;;;;;7420748;19;19918;-80
2024/03/17 00:03:11;;;;;;;7.03;3.78;;;;;;;;;;7419609;19;19913;-80
2024/03/17 00:05:58;;;;;;;6.68;3.20;;;;;;;;;;7418024;19;19926;-81
2024/03/17 00:08:42;;;;;;;7.40;3.83;;;;;;;;;;7419424;19;19910;-81
2024/03/17 00:11:31;;;;;;;;;;;;;;;;;;7421021;19;19918;-80
2024/03/17 00:14:13;;;;;;;4.88;2.83;;;;;;;;;;7417050;19;19921;-80
2024/03/17 00:16:57;;;;;;;5.68;3.17;;;;;;;;;;7415735;19;19915;-80
2024/03/17 00:19:41;;;;;;;6.72;3.33;;;;;;;;;;7418625;19;19907;-80
2024/03/17 00:22:26;;;;;;;7.03;3.60;;;;;;;;;;7420565;19;19919;-81
2024/03/17 00:25:08;;;;;;;5.65;2.67;;;;;;;;;;7418274;19;19921;-80
2024/03/17 00:27:57;;;;;;;6.63;2.97;;;;;;;;;;7419561;19;19926;-80
2024/03/17 00:30:39;;;;;;;6.15;2.90;;;;;;;;;;7419762;19;19918;-80
2024/03/17 00:33:26;;;;;;;5.32;2.90;;;;;;;;;;7419025;19;19914;-80
2024/03/17 00:36:10;;;;;;;6.88;2.90;;;;;;;;;;7417132;19;19915;-80
2024/03/17 00:38:54;;;;;;;5.55;2.20;;;;;;;;;;7419327;19;19943;-80
2024/03/17 00:41:36;;;;;;;5.15;2.53;;;;;;;;;;7419505;19;20318;-80
2024/03/17 00:44:23;;;;;;;4.30;2.67;;;;;;;;;;7418077;19;19921;-80
2024/03/17 00:47:09;;;;;;;6.60;2.63;;;;;;;;;;7419621;19;19927;-80
2024/03/17 00:49:56;;;;;;;5.30;2.53;;;;;;;;;;7419253;19;19918;-80
2024/03/17 00:52:44;;;;;;;5.55;2.42;;;;;;;;;;7418583;19;19964;-80
2024/03/17 00:55:28;;;;;;;6.63;3.03;;;;;;;;;;7410923;19;20344;-80
2024/03/17 00:58:23;;;;;;;4.68;2.47;;;;;;;;;;7403688;19;19926;-79
2024/03/17 01:01:07;;;;;;;4.85;2.75;;;;;;;;;;7403461;19;19914;-79
2024/03/17 01:03:52;;;;;;;6.00;2.63;;;;;;;;;;7404160;19;19915;-79
2024/03/17 01:06:40;;;;;;;3.60;2.35;;;;;;;;;;7403773;19;19921;-80
2024/03/17 01:09:27;;;;;;;6.60;2.95;;;;;;;;;;7403422;19;19997;-80
2024/03/17 01:12:13;;;;;;;6.28;2.30;;;;;;;;;;7402789;19;20334;-80
2024/03/17 01:14:55;;;;;;;4.68;2.00;;;;;;;;;;7404537;19;19978;-80
2024/03/17 01:17:42;;;;;;;4.35;2.10;;;;;;;;;;7398576;19;19922;-80
2024/03/17 01:20:24;;;;;;;5.03;2.40;;;;;;;;;;7401997;19;19919;-80
2024/03/17 01:23:08;;;;;;;6.05;2.55;;;;;;;;;;7409938;19;19915;-80
2024/03/17 01:25:50;;;;;;;4.20;2.50;;;;;;;;;;7402195;19;19914;-80
2024/03/17 01:28:34;;;;;;;3.78;2.17;;;;;;;;;;7397663;19;20342;-80
2024/03/17 01:31:20;;;;;;;4.10;1.92;;;;;;;;;;7400713;19;19945;-80
2024/03/17 01:34:07;;;;;;;6.95;1.95;;;;;;;;;;7401022;19;19919;-80
2024/03/17 01:36:51;;;;;;;5.82;2.15;;;;;;;;;;7401115;19;19910;-80
2024/03/17 01:39:38;;;;;;;5.55;2.35;;;;;;;;;;7402513;19;19914;-80
2024/03/17 01:42:19;;;;;;;3.85;2.33;;;;;;;;;;7400609;19;19911;-80
2024/03/17 01:45:27;;;;;;;4.85;2.25;;;;;;;;;;7402513;19;19920;-80
2024/03/17 01:48:19;;;;;;;5.53;2.55;;;;;;;;;;7398013;19;19919;-80
2024/03/17 01:51:06;;;;;;;4.82;2.45;;;;;;;;;;7402836;19;19915;-80
2024/03/17 01:53:51;;;;;;;5.55;2.67;;;;;;;;;;7400947;19;19915;-80
2024/03/17 01:56:33;;;;;;;5.32;2.85;;;;;;;;;;7400160;19;19915;-80
2024/03/17 01:59:17;;;;;;;6.80;2.60;;;;;;;;;;7401755;19;20253;-80
2024/03/17 02:01:59;;;;;;;5.05;2.70;;;;;;;;;;7398842;19;19958;-80
2024/03/17 02:04:46;;;;;;;5.22;2.47;;;;;;;;;;7399753;19;19945;-80
2024/03/17 02:07:36;;;;;;;;;;;;;;;;;;7404005;19;19919;-80
2024/03/17 02:10:21;;;;;;;5.20;2.10;;;;;;;;;;7402630;19;19953;-80
2024/03/17 02:13:05;;;;;;;4.45;2.40;;;;;;;;;;7402203;19;19914;-80
2024/03/17 02:15:50;;;;;;;4.20;2.30;;;;;;;;;;7397005;19;19914;-80
2024/03/17 02:18:34;;;;;;;8.77;2.50;;;;;;;;;;7396895;19;19922;-80
2024/03/17 02:21:24;;;;;;;5.88;2.85;;;;;;;;;;7399726;19;19910;-80
2024/03/17 02:24:08;;;;;;;6.10;2.40;;;;;;;;;;7404810;19;19974;-80
2024/03/17 02:26:57;;;;;;;5.20;2.40;;;;;;;;;;7397473;19;19914;-80
2024/03/17 02:29:42;;;;;;;4.40;2.60;;;;;;;;;;7397137;19;20010;-80
2024/03/17 02:32:28;;;;;;;;;;;;;;;;;;7399075;19;19914;-80
2024/03/17 02:35:12;;;;;;;6.13;2.20;;;;;;;;;;7395702;19;20002;-80
2024/03/17 02:37:54;;;;;;;4.22;2.40;;;;;;;;;;7400636;19;20281;-80
2024/03/17 02:40:41;;;;;;;5.85;2.58;;;;;;;;;;7397634;19;19911;-80
2024/03/17 02:43:25;;;;;;;5.82;2.55;;;;;;;;;;7396318;19;19926;-80
2024/03/17 02:46:12;;;;;;;7.38;2.83;;;;;;;;;;7395346;19;20531;-80
2024/03/17 02:48:57;;;;;;;4.15;2.33;;;;;;;;;;7401179;19;19933;-80
2024/03/17 02:51:44;;;;;;;5.55;3.10;;;;;;;;;;7400091;19;19939;-80
2024/03/17 02:54:28;;;;;;;6.07;2.40;;;;;;;;;;7403361;19;19918;-80
2024/03/17 02:57:16;;;;;;;6.28;2.70;;;;;;;;;;7400183;19;19915;-80
2024/03/17 03:00:03;;;;;;;3.20;2.13;;;;;;;;;;7401204;19;19914;-80
2024/03/17 03:02:48;;;;;;;5.43;2.35;;;;;;;;;;7400202;19;19923;-80
2024/03/17 03:05:35;;;;;;;4.70;2.35;;;;;;;;;;7399183;19;19917;-80
2024/03/17 03:08:19;;;;;;;4.60;2.33;;;;;;;;;;7399324;19;20357;-80
2024/03/17 03:11:04;;;;;;;3.38;2.40;;;;;;;;;;7399494;19;20320;-80
2024/03/17 03:13:51;;;;;;;4.88;2.40;;;;;;;;;;7398823;19;19918;-80
2024/03/17 03:16:38;;;;;;;5.57;2.88;;;;;;;;;;7399160;19;19942;-80
2024/03/17 03:19:25;;;;;;;5.93;2.67;;;;;;;;;;7402785;19;19906;-80
2024/03/17 03:22:09;;;;;;;6.45;2.67;;;;;;;;;;7400880;19;19935;-80
2024/03/17 03:24:55;;;;;;;4.35;2.13;;;;;;;;;;7405428;19;20488;-80
2024/03/17 03:27:41;;;;;;;3.80;2.10;;;;;;;;;;7397647;19;19918;-80
2024/03/17 03:30:28;;;;;;;5.47;2.58;;;;;;;;;;7400587;19;19924;-80
2024/03/17 03:33:12;;;;;;;10.45;3.00;;;;;;;;;;7400334;19;19906;-80
2024/03/17 03:36:01;;;;;;;5.75;2.30;;;;;;;;;;7397204;19;19922;-81
2024/03/17 03:38:48;;;;;;;5.68;2.60;;;;;;;;;;7400342;19;19940;-81
2024/03/17 03:41:36;;;;;;;7.20;2.40;;;;;;;;;;7401778;19;19923;-80
2024/03/17 03:44:25;;;;;;;7.70;2.50;;;;;;;;;;7403850;19;19914;-80
2024/03/17 03:47:14;;;;;;;5.35;2.50;;;;;;;;;;7399357;19;19918;-80
2024/03/17 03:50:01;;;;;;;5.60;2.63;;;;;;;;;;7401253;19;20334;-81
2024/03/17 03:52:45;;;;;;;4.70;2.25;;;;;;;;;;7401828;19;19910;-81
2024/03/17 03:55:34;;;;;;;7.80;3.20;;;;;;;;;;7402683;19;19914;-80
2024/03/17 03:58:21;;;;;;;9.73;3.08;;;;;;;;;;7396631;19;19914;-80
2024/03/17 04:01:06;;;;;;;5.30;2.95;;;;;;;;;;7400914;19;19941;-80
2024/03/17 04:03:53;;;;;;;7.00;3.42;;;;;;;;;;7398381;19;19910;-80
2024/03/17 04:06:38;;;;;;;8.07;2.90;;;;;;;;;;7397013;19;20286;-81
2024/03/17 04:09:22;;;;;;;5.22;2.53;;;;;;;;;;7398332;19;19911;-80
2024/03/17 04:12:07;;;;;;;6.35;2.85;;;;;;;;;;7399739;19;20337;-80
2024/03/17 04:14:53;;;;;;;6.75;3.20;;;;;;;;;;7401052;19;19978;-80
2024/03/17 04:17:40;;;;;;;5.25;2.47;;;;;;;;;;7401679;19;19926;-80
2024/03/17 04:20:27;;;;;;;6.10;2.60;;;;;;;;;;7403774;19;19910;-80
2024/03/17 04:23:11;;;;;;;5.03;2.60;;;;;;;;;;7404667;19;19961;-80
2024/03/17 04:25:58;;;;;;;6.78;2.88;;;;;;;;;;7408324;19;19951;-80
2024/03/17 04:28:47;;;;;;;5.30;2.50;;;;;;;;;;7403353;19;19911;-80
2024/03/17 04:31:34;;;;;;;4.50;2.22;;;;;;;;;;7405019;19;19991;-80
2024/03/17 04:34:18;;;;;;;3.63;2.00;;;;;;;;;;7406114;19;19907;-81
2024/03/17 04:37:07;;;;;;;4.00;1.88;;;;;;;;;;7402635;19;19922;-81
2024/03/17 04:39:52;;;;;;;7.57;2.60;;;;;;;;;;7403065;19;19911;-81
2024/03/17 04:42:38;;;;;;;5.15;2.50;;;;;;;;;;7407099;19;20005;-81
2024/03/17 04:45:27;;;;;;;7.07;3.08;;;;;;;;;;7407282;19;19915;-81
2024/03/17 04:48:14;;;;;;;5.22;2.83;;;;;;;;;;7402362;19;19923;-80
2024/03/17 04:51:01;;;;;;;4.65;2.63;;;;;;;;;;7404535;19;20397;-80
2024/03/17 04:53:50;;;;;;;4.03;1.90;;;;;;;;;;7407307;19;20319;-80
2024/03/17 04:56:38;;;;;;;4.82;2.15;;;;;;;;;;7402075;19;19906;-81
2024/03/17 04:59:27;;;;;;;4.82;2.60;;;;;;;;;;7404831;19;19932;-80
2024/03/17 05:02:11;;;;;;;4.60;2.45;;;;;;;;;;7405151;19;19915;-80
2024/03/17 05:04:55;;;;;;;6.32;1.98;;;;;;;;;;7405382;19;19921;-80
2024/03/17 05:07:40;;;;;;;3.55;2.00;;;;;;;;;;7404074;19;19953;-80
2024/03/17 05:10:26;;;;;;;7.05;2.55;;;;;;;;;;7403417;19;19922;-80
2024/03/17 05:13:11;;;;;;;4.35;2.85;;;;;;;;;;7407796;19;19953;-80
2024/03/17 05:15:56;;;;;;;3.38;1.88;;;;;;;;;;7403844;19;19939;-80
2024/03/17 05:18:40;;;;;;;7.80;2.38;;;;;;;;;;7401130;19;19919;-80
2024/03/17 05:21:25;;;;;;;5.43;2.50;;;;;;;;;;7405240;19;19991;-80
2024/03/17 05:24:13;;;;;;;4.80;2.00;;;;;;;;;;7409964;19;20334;-80
2024/03/17 05:27:06;;;;;;;6.07;2.45;;;;;;;;;;7402264;19;20242;-80
2024/03/17 05:29:51;;;;;;;5.22;2.45;;;;;;;;;;7405919;19;19911;-80
2024/03/17 05:32:35;;;;;;;5.47;2.65;;;;;;;;;;7401311;19;19922;-80
2024/03/17 05:35:24;;;;;;;5.47;2.63;;;;;;;;;;7402124;19;19993;-80
2024/03/17 05:38:13;;;;;;;5.55;3.30;;;;;;;;;;7402715;19;19922;-80
2024/03/17 05:40:59;;;;;;;6.15;3.15;;;;;;;;;;7402661;19;19914;-80
2024/03/17 05:43:51;;;;;;;3.78;2.42;;;;;;;;;;7415224;19;19911;-81
2024/03/17 05:46:37;;;;;;;5.78;2.45;;;;;;;;;;7407286;19;19923;-80
2024/03/17 05:49:24;;;;;;;12.98;3.25;;;;;;;;;;7412778;19;19926;-80
2024/03/17 05:52:09;;;;;;;5.70;3.40;;;;;;;;;;7414031;19;19915;-80
2024/03/17 05:54:55;;;;;;;5.85;2.70;;;;;;;;;;7411059;19;19934;-80
2024/03/17 05:57:44;;;;;;;6.10;2.80;;;;;;;;;;7410476;19;19911;-80
2024/03/17 06:00:31;;;;;;;7.63;2.92;;;;;;;;;;7411489;19;19923;-80
2024/03/17 06:03:15;;;;;;;3.70;2.42;;;;;;;;;;7415576;19;20368;-80
2024/03/17 06:06:02;;;;;;;5.93;3.17;;;;;;;;;;7416361;19;19907;-80
2024/03/17 06:08:46;;;;;;;4.78;2.08;;;;;;;;;;7416274;19;19907;-80
2024/03/17 06:11:34;;;;;;;6.45;3.00;;;;;;;;;;7412019;19;19929;-80
2024/03/17 06:14:18;;;;;;;5.22;3.08;;;;;;;;;;7413569;19;19922;-80
2024/03/17 06:17:10;;;;;;;8.18;2.78;;;;;;;;;;7413659;19;19926;-80
2024/03/17 06:19:58;;;;;;;7.90;2.95;;;;;;;;;;7413845;19;19941;-80
2024/03/17 06:22:42;;;;;;;4.97;2.75;;;;;;;;;;7414593;19;20338;-80
2024/03/17 06:25:27;;;;;;;5.40;2.97;;;;;;;;;;7412898;19;19982;-80
2024/03/17 06:28:13;;;;;;;6.78;2.88;;;;;;;;;;7411811;19;19917;-80
2024/03/17 06:30:59;;;;;;;11.48;3.30;;;;;;;;;;7414343;19;20363;-80
2024/03/17 06:33:46;;;;;;;5.05;2.78;;;;;;;;;;7415215;19;19913;-81
2024/03/17 06:36:35;;;;;;;5.53;2.70;;;;;;;;;;7409298;19;20002;-81
2024/03/17 06:39:24;;;;;;;5.32;2.67;;;;;;;;;;7412501;19;19922;-81
2024/03/17 06:42:11;;;;;;;4.93;2.40;;;;;;;;;;7413609;19;19925;-80
2024/03/17 06:44:56;;;;;;;6.13;2.60;;;;;;;;;;7412501;19;19923;-80
2024/03/17 06:47:44;;;;;;;4.88;2.88;;;;;;;;;;7410752;19;19918;-80
2024/03/17 06:50:31;;;;;;;6.55;2.95;;;;;;;;;;7414975;19;19942;-80
2024/03/17 06:53:18;;;;;;;6.95;2.83;;;;;;;;;;7411736;19;19933;-80
2024/03/17 06:56:05;;;;;;;6.03;3.28;;;;;;;;;;7411302;19;19914;-80
2024/03/17 06:58:51;;;;;;;4.53;2.70;;;;;;;;;;7409927;19;19903;-79
2024/03/17 07:01:41;;;;;;;4.15;2.00;;;;;;;;;;7413236;19;19935;-81
2024/03/17 07:04:27;;;;;;;5.13;2.83;;;;;;;;;;7412909;19;20341;-81
2024/03/17 07:07:14;;;;;;;4.85;2.35;;;;;;;;;;7412684;19;19934;-80
2024/03/17 07:10:04;;;;;;;4.00;2.38;;;;;;;;;;7412404;19;19973;-81
2024/03/17 07:12:51;;;;;;;3.15;2.15;;;;;;;;;;7409465;19;20318;-80
2024/03/17 07:15:40;;;;;;;3.83;2.45;;;;;;;;;;7411620;19;19914;-81
2024/03/17 07:18:24;;;;;;;3.80;2.10;;;;;;;;;;7410999;19;20268;-81
2024/03/17 07:21:09;;;;;;;6.20;2.17;;;;;;;;;;7411342;19;19935;-81
2024/03/17 07:23:59;;;;;;;2.92;2.05;;;;;;;;;;7413999;19;19914;-81
2024/03/17 07:26:43;;;;;;;3.22;2.17;;;;;;;;;;7410700;19;19915;-81
2024/03/17 07:29:28;;;;;;;5.20;2.30;;;;;;;;;;7415300;19;19974;-81
2024/03/17 07:32:12;;;;;;;4.35;2.38;;;;;;;;;;7411547;19;19914;-81
2024/03/17 07:34:56;;;;;;;4.00;2.45;;;;;;;;;;7411034;19;19938;-81
2024/03/17 07:37:41;;;;;;;4.22;2.05;;;;;;;;;;7407860;19;19907;-81
2024/03/17 07:40:28;;;;;;;2.92;1.90;;;;;;;;;;7407919;19;19926;-81
2024/03/17 07:43:12;;;;;;;3.58;1.70;;;;;;;;;;7413410;19;20329;-81
2024/03/17 07:46:01;;;;;;;3.22;1.45;;;;;;;;;;7411430;19;19967;-81
2024/03/17 07:48:46;;;;;;;3.45;1.73;;;;;;;;;;7413715;19;20269;-81
2024/03/17 07:51:30;;;;;;;2.20;1.70;;;;;;;;;;7418510;19;19918;-81
2024/03/17 07:54:15;;;;;;;2.28;1.50;;;;;;;;;;7417346;19;19926;-81
2024/03/17 07:57:04;;;;;;;3.92;1.70;;;;;;;;;;7415067;19;19906;-81
2024/03/17 07:59:52;;;;;;;1.80;1.48;;;;;;;;;;7417929;19;20251;-81
2024/03/17 08:02:39;;;;;;;2.33;1.60;;;;;;;;;;7418103;19;19923;-81
2024/03/17 08:05:25;;;;;;;3.05;1.45;;;;;;;;;;7419965;19;19914;-81
2024/03/17 08:08:12;;;;;;;2.65;1.50;;;;;;;;;;7415905;19;20476;-81
2024/03/17 08:10:57;;;;;;;2.35;1.60;;;;;;;;;;7417674;19;19922;-81
2024/03/17 08:13:48;;;;;;;2.33;1.50;;;;;;;;;;7415652;19;19907;-81
2024/03/17 08:16:35;;;;;;;3.25;1.90;;;;;;;;;;7417048;19;19943;-81
2024/03/17 08:19:19;;;;;;;2.38;1.70;;;;;;;;;;7413449;19;19923;-81
2024/03/17 08:22:04;;;;;;;2.72;1.70;;;;;;;;;;7415543;19;19915;-81
2024/03/17 08:24:49;;;;;;;2.70;1.50;;;;;;;;;;7416406;19;19919;-82
2024/03/17 08:27:38;;;;;;;4.05;1.90;;;;;;;;;;7417722;19;19924;-81
2024/03/17 08:30:30;;;;;;;4.18;1.83;;;;;;;;;;7418974;19;19911;-80
2024/03/17 08:33:14;;;;;;;3.53;1.80;;;;;;;;;;7417140;19;19978;-81
2024/03/17 08:36:00;;;;;;;2.83;1.70;;;;;;;;;;7415188;19;20617;-81
2024/03/17 08:38:47;;;;;;;3.08;1.88;;;;;;;;;;7417957;19;19915;-80
2024/03/17 08:41:32;;;;;;;6.05;2.00;;;;;;;;;;7414043;19;19926;-79
2024/03/17 08:44:21;;;;;;;2.95;1.77;;;;;;;;;;7418943;19;19922;-81
2024/03/17 08:47:11;;;;;;;4.20;2.10;;;;;;;;;;7416707;19;19999;-79
2024/03/17 08:49:58;;;;;;;2.83;2.10;;;;;;;;;;7414036;19;19922;-79
2024/03/17 08:52:46;;;;;;;3.13;2.08;;;;;;;;;;7417601;19;20337;-80
2024/03/17 08:55:31;;;;;;;4.15;2.20;;;;;;;;;;7417898;19;20340;-81
2024/03/17 08:58:15;;;;;;;5.13;2.10;;;;;;;;;;7418895;19;19982;-81
2024/03/17 09:01:08;;;;;;;3.35;1.98;;;;;;;;;;7415765;19;19922;-81
2024/03/17 09:04:01;;;;;;;4.10;2.40;;;;;;;;;;7419540;19;19970;-82
2024/03/17 09:06:47;;;;;;;2.85;2.13;;;;;;;;;;7417861;19;19919;-81
2024/03/17 09:09:34;;;;;;;4.80;2.15;;;;;;;;;;7415055;19;19919;-79
2024/03/17 09:12:20;;;;;;;3.35;2.13;;;;;;;;;;7413480;19;19926;-80
2024/03/17 09:15:05;;;;;;;3.72;2.33;;;;;;;;;;7417327;19;19926;-80
2024/03/17 09:17:52;;;;;;;4.43;2.55;;;;;;;;;;7412698;19;19978;-80
2024/03/17 09:20:38;;;;;;;6.07;3.33;;;;;;;;;;7417766;19;19918;-80
2024/03/17 09:23:27;;;;;;;5.22;3.17;;;;;;;;;;7419361;19;20249;-80
2024/03/17 09:26:16;;;;;;;7.85;3.85;;;;;;;;;;7417151;19;20318;-80
2024/03/17 09:29:03;;;;;;;6.18;3.88;;;;;;;;;;7417520;19;19910;-80
2024/03/17 09:31:49;;;;;;;8.88;4.07;;;;;;;;;;7413671;19;19914;-80
2024/03/17 09:34:35;;;;;;;6.35;3.03;;;;;;;;;;7413456;19;21027;-79
2024/03/17 09:37:24;;;;;;;10.45;3.53;;;;;;;;;;7410327;19;19920;-80
2024/03/17 09:40:16;;;;;;;6.47;3.35;;;;;;;;;;7415976;19;19922;-80
2024/03/17 09:43:03;;;;;;;7.03;3.45;;;;;;;;;;7414965;19;20436;-80
2024/03/17 09:45:50;;;;;;;8.05;4.07;;;;;;;;;;7415852;19;19914;-80
2024/03/17 09:48:34;;;;;;;8.40;4.00;;;;;;;;;;7414462;19;19926;-80
2024/03/17 09:51:23;;;;;;;7.43;3.83;;;;;;;;;;7417908;19;20413;-80
2024/03/17 09:54:19;;;;;;;8.25;3.88;;;;;;;;;;7416459;19;21221;-80
2024/03/17 09:57:04;;;;;;;6.88;3.88;;;;;;;;;;7416824;19;19922;-80
2024/03/17 09:59:54;;;;;;;7.22;4.07;;;;;;;;;;7415598;19;19975;-79
2024/03/17 10:02:48;;;;;;;6.32;3.53;;;;;;;;;;7418166;19;19931;-80
2024/03/17 10:05:37;;;;;;;5.80;3.55;;;;;;;;;;7416360;19;19918;-80
2024/03/17 10:08:24;;;;;;;4.53;2.90;;;;;;;;;;7414267;19;19952;-81
2024/03/17 10:11:15;;;;;;;7.07;3.90;;;;;;;;;;7413941;19;19925;-79
2024/03/17 10:14:03;;;;;;;5.32;3.55;;;;;;;;;;7412182;19;20269;-79
2024/03/17 10:16:50;;;;;;;6.20;3.55;;;;;;;;;;7412090;19;19922;-79
2024/03/17 10:19:39;;;;;;;4.93;3.70;;;;;;;;;;7413738;19;19949;-79
2024/03/17 10:22:23;;;;;;;8.23;4.18;;;;;;;;;;7413616;19;20266;-79
2024/03/17 10:25:12;;;;;;;9.45;3.95;;;;;;;;;;7413506;19;19923;-79
2024/03/17 10:28:03;;;;;;;6.07;3.50;;;;;;;;;;7409270;19;19930;-79
2024/03/17 10:31:03;;;;;;;7.15;4.35;;;;;;;;;;7414301;19;19914;-79
2024/03/17 10:34:03;;;;;;;6.47;3.63;;;;;;;;;;7413334;19;19926;-80
2024/03/17 10:36:51;;;;;;;6.65;3.67;;;;;;;;;;7411908;19;20003;-80
2024/03/17 10:39:38;;;;;;;6.20;3.75;;;;;;;;;;7415029;19;19974;-80
2024/03/17 10:42:28;;;;;;;7.53;3.85;;;;;;;;;;7412492;19;20018;-80
2024/03/17 10:45:16;;;;;;;9.50;3.85;;;;;;;;;;7415455;19;19907;-79
2024/03/17 10:48:03;;;;;;;7.32;4.13;;;;;;;;;;7410539;19;19927;-80
2024/03/17 10:50:52;;;;;;;7.00;3.58;;;;;;;;;;7414872;19;19983;-80
2024/03/17 10:53:37;;;;;;;7.75;3.90;;;;;;;;;;7411822;19;19910;-80
2024/03/17 10:56:24;;;;;;;8.40;3.35;;;;;;;;;;7413047;19;19946;-80
2024/03/17 10:59:15;;;;;;;6.05;3.28;;;;;;;;;;7412240;19;19926;-80
2024/03/17 11:02:04;;;;;;;7.97;3.72;;;;;;;;;;7413789;19;19918;-80
2024/03/17 11:04:55;;;;;;;8.02;3.90;;;;;;;;;;7416327;19;19914;-80
2024/03/17 11:07:45;;;;;;;6.32;3.65;;;;;;;;;;7414987;19;19917;-80
2024/03/17 11:10:34;;;;;;;7.78;3.92;;;;;;;;;;7415365;19;19918;-80
2024/03/17 11:13:25;;;;;;;6.85;3.88;;;;;;;;;;7414209;19;19935;-80
2024/03/17 11:16:32;;;;;;;6.20;3.47;;;;;;;;;;7413499;19;19918;-80
2024/03/17 11:19:20;;;;;;;4.78;3.28;;;;;;;;;;7410274;19;19947;-80
2024/03/17 11:22:38;;;;;;;6.47;3.55;;;;;;;;;;7414141;19;20308;-80
2024/03/17 11:25:41;;;;;;;5.10;3.20;;;;;;;;;;7413091;19;19921;-80
2024/03/17 11:28:55;;;;;;;6.82;3.40;;;;;;;;;;7410234;19;19995;-80
2024/03/17 11:31:46;;;;;;;6.63;3.33;;;;;;;;;;7411027;19;19955;-80
2024/03/17 11:34:39;;;;;;;7.88;3.30;;;;;;;;;;7412229;19;19922;-79
2024/03/17 11:37:44;;;;;;;5.43;3.25;;;;;;;;;;7411762;19;19919;-79
2024/03/17 11:40:25;;;;;;;4.70;2.85;;;;;;;;;;7411344;19;19980;-79
2024/03/17 11:43:19;;;;;;;6.78;3.38;;;;;;;;;;7413406;19;19954;-80
2024/03/17 11:46:01;;;;;;;5.10;3.03;;;;;;;;;;7413429;19;20338;-80
2024/03/17 11:48:45;;;;;;;5.35;3.05;;;;;;;;;;7413291;19;19929;-80
2024/03/17 11:51:30;;;;;;;4.75;2.65;;;;;;;;;;7410577;19;20279;-80
2024/03/17 11:54:18;;;;;;;6.78;3.35;;;;;;;;;;7412621;19;19930;-80
2024/03/17 11:57:07;;;;;;;5.13;2.92;;;;;;;;;;7410102;19;19915;-80
2024/03/17 11:59:55;;;;;;;5.70;3.10;;;;;;;;;;7411209;19;20246;-79
2024/03/17 12:02:43;;;;;;;7.35;2.78;;;;;;;;;;7414701;19;19919;-79
2024/03/17 12:05:25;;;;;;;7.45;2.50;;;;;;;;;;7410946;19;19919;-79
2024/03/17 12:08:23;;;;;;;3.70;2.70;;;;;;;;;;7411016;19;19927;-80
2024/03/17 12:11:17;;;;;;;3.30;2.25;;;;;;;;;;7410829;19;20270;-80
2024/03/17 12:14:15;;;;;;;5.85;3.10;;;;;;;;;;7411104;19;19937;-80
2024/03/17 12:17:01;;;;;;;3.33;2.53;;;;;;;;;;7410734;19;19922;-79
2024/03/17 12:19:47;;;;;;;;;;;;;;;;;;7414467;19;19922;-79
2024/03/17 12:22:33;;;;;;;5.35;2.70;;;;;;;;;;7409505;19;19919;-79
2024/03/17 12:25:26;;;;;;;5.60;2.85;;;;;;;;;;7409236;19;19906;-80
2024/03/17 12:28:15;;;;;;;;;;;;;;;;;;7410392;19;19918;-80
2024/03/17 12:31:01;;;;;;;4.60;3.13;;;;;;;;;;7408791;19;19927;-79
2024/03/17 12:33:45;;;;;;;4.75;2.47;;;;;;;;;;7408164;19;19919;-79
2024/03/17 12:36:32;;;;;;;5.43;2.50;;;;;;;;;;7410543;19;19918;-78
2024/03/17 12:39:24;;;;;;;4.00;2.20;;;;;;;;;;7416910;19;19991;-79
2024/03/17 12:42:13;;;;;;;9.55;3.10;;;;;;;;;;7415512;19;19918;-79
2024/03/17 12:44:58;;;;;;;6.60;2.42;;;;;;;;;;7418829;19;19918;-79
2024/03/17 12:47:42;;;;;;;4.05;2.88;;;;;;;;;;7415349;19;19914;-79
2024/03/17 12:50:26;;;;;;;6.28;2.75;;;;;;;;;;7419844;19;19915;-79
2024/03/17 12:53:20;;;;;;;5.95;2.97;;;;;;;;;;7419649;19;19922;-79
2024/03/17 13:02:20;;;;;;;6.32;4.03;;;;;;;;;;7411419;19;19937;-80
2024/03/17 13:05:18;;;;;;;5.13;2.50;;;;;;;;;;7414084;19;19914;-80
2024/03/17 13:08:08;;;;;;;7.30;2.55;;;;;;;;;;7414091;19;20000;-80
2024/03/17 13:10:52;;;;;;;3.45;2.50;;;;;;;;;;7413366;19;20325;-80
2024/03/17 13:13:36;;;;;;;5.80;2.95;;;;;;;;;;7415517;19;19918;-81
2024/03/17 13:16:25;;;;;;;4.57;2.97;;;;;;;;;;7411657;19;19918;-81
2024/03/17 13:19:11;;;;;;;5.60;2.92;;;;;;;;;;7412023;19;19918;-80
2024/03/17 13:21:58;;;;;;;3.83;2.50;;;;;;;;;;7411946;19;19978;-80
2024/03/17 13:24:42;;;;;;;5.32;2.70;;;;;;;;;;7414398;19;19922;-81
2024/03/17 13:27:29;;;;;;;4.00;2.72;;;;;;;;;;7410568;19;19923;-82
2024/03/17 13:30:16;;;;;;;4.25;2.13;;;;;;;;;;7415158;19;20313;-82
2024/03/17 13:33:08;;;;;;;6.22;2.95;;;;;;;;;;7412075;19;19914;-81
2024/03/17 13:35:53;;;;;;;6.15;2.80;;;;;;;;;;7414426;19;20287;-81
2024/03/17 13:38:39;;;;;;;6.18;2.80;;;;;;;;;;7411190;19;20614;-82
2024/03/17 13:41:23;;;;;;;5.32;2.65;;;;;;;;;;7412808;19;19933;-82
2024/03/17 13:44:10;;;;;;;3.88;2.33;;;;;;;;;;7415134;19;19930;-81
2024/03/17 13:46:54;;;;;;;6.28;2.53;;;;;;;;;;7411454;19;19907;-81
2024/03/17 13:49:44;;;;;;;3.70;2.50;;;;;;;;;;7413677;19;19926;-81
2024/03/17 13:52:30;;;;;;;3.30;1.95;;;;;;;;;;7415767;19;20326;-81
2024/03/17 13:55:17;;;;;;;3.58;2.28;;;;;;;;;;7415889;19;19918;-81
2024/03/17 13:58:04;;;;;;;6.03;2.70;;;;;;;;;;7412534;19;19907;-81
2024/03/17 14:00:53;;;;;;;5.75;2.60;;;;;;;;;;7415686;19;20249;-81
2024/03/17 14:03:37;;;;;;;3.97;2.97;;;;;;;;;;7414154;19;19911;-81
2024/03/17 14:06:24;;;;;;;5.50;2.38;;;;;;;;;;7418676;19;19915;-82
2024/03/17 14:09:12;;;;;;;5.57;2.80;;;;;;;;;;7428895;19;19948;-82
2024/03/17 14:11:58;;;;;;;5.72;3.22;;;;;;;;;;7425994;19;19926;-82
2024/03/17 14:14:44;;;;;;;3.83;2.47;;;;;;;;;;7424081;19;19918;-82
2024/03/17 14:17:32;;;;;;;7.45;2.90;;;;;;;;;;7424352;19;19923;-81
2024/03/17 14:20:20;;;;;;;6.00;3.17;;;;;;;;;;7425875;19;19914;-81
2024/03/17 14:23:09;;;;;;;4.78;2.83;;;;;;;;;;7427139;19;19964;-81
2024/03/17 14:25:59;;;;;;;4.70;2.67;;;;;;;;;;7414467;19;19915;-81
2024/03/17 14:28:43;;;;;;;6.82;2.50;;;;;;;;;;7414716;19;19929;-81
2024/03/17 14:31:35;;;;;;;5.38;2.30;;;;;;;;;;7412613;19;19915;-81
2024/03/17 14:34:19;;;;;;;;;;;;;;;;;;7416361;19;19910;-81
2024/03/17 14:37:04;;;;;;;5.00;2.50;;;;;;;;;;7412906;19;19948;-81
2024/03/17 14:39:50;;;;;;;4.97;3.08;;;;;;;;;;7412643;19;20344;-82
2024/03/17 14:42:41;;;;;;;3.90;2.22;;;;;;;;;;7412923;19;19915;-82
2024/03/17 14:45:28;;;;;;;4.65;3.13;;;;;;;;;;7412070;19;19974;-81
2024/03/17 14:48:15;;;;;;;5.20;2.45;;;;;;;;;;7412541;19;19915;-81
2024/03/17 14:50:59;;;;;;;4.55;2.47;;;;;;;;;;7412713;19;19927;-81
2024/03/17 14:53:47;;;;;;;5.47;2.45;;;;;;;;;;7411577;19;19925;-81
2024/03/17 14:56:34;;;;;;;2.92;2.10;;;;;;;;;;7409299;19;20491;-81
2024/03/17 14:59:19;;;;;;;4.22;2.53;;;;;;;;;;7408553;19;19921;-82
2024/03/17 15:02:03;;;;;;;4.35;2.30;;;;;;;;;;7412063;19;19922;-82
2024/03/17 15:04:51;;;;;;;3.22;2.05;;;;;;;;;;7414050;19;19918;-82
2024/03/17 15:07:38;;;;;;;3.60;2.20;;;;;;;;;;7411687;19;19914;-82
2024/03/17 15:10:25;;;;;;;5.38;2.03;;;;;;;;;;7414510;19;20301;-82
2024/03/17 15:13:14;;;;;;;3.10;2.38;;;;;;;;;;7412672;19;19915;-82
2024/03/17 15:15:59;;;;;;;5.35;2.25;;;;;;;;;;7414393;19;20242;-82
2024/03/17 15:18:47;;;;;;;2.97;2.00;;;;;;;;;;7414427;19;19911;-82
2024/03/17 15:21:31;;;;;;;3.38;2.30;;;;;;;;;;7413461;19;19991;-82
2024/03/17 15:24:15;;;;;;;4.10;2.25;;;;;;;;;;7410845;19;20016;-82
2024/03/17 15:26:59;;;;;;;5.72;2.95;;;;;;;;;;7410886;19;20706;-81
2024/03/17 15:29:47;;;;;;;5.05;1.73;;;;;;;;;;7414570;19;20454;-82
2024/03/17 15:32:31;;;;;;;4.35;2.10;;;;;;;;;;7411014;19;20357;-82
2024/03/17 15:35:15;;;;;;;4.05;2.22;;;;;;;;;;7412188;19;20284;-82
2024/03/17 15:38:04;;;;;;;4.53;1.80;;;;;;;;;;7409008;19;19915;-82
2024/03/17 15:40:49;;;;;;;4.78;2.20;;;;;;;;;;7411893;19;19933;-82
2024/03/17 15:43:33;;;;;;;3.45;2.10;;;;;;;;;;7408967;19;19914;-82
2024/03/17 15:46:23;;;;;;;2.92;1.88;;;;;;;;;;7409781;19;19922;-81
2024/03/17 15:49:07;;;;;;;3.15;2.00;;;;;;;;;;7410103;19;20084;-82
2024/03/17 15:51:54;;;;;;;4.43;2.10;;;;;;;;;;7413227;19;19923;-82
2024/03/17 15:54:38;;;;;;;3.35;2.08;;;;;;;;;;7409999;19;19918;-82
2024/03/17 15:57:22;;;;;;;3.40;2.30;;;;;;;;;;7405493;19;20010;-82
2024/03/17 16:00:11;;;;;;;4.03;2.17;;;;;;;;;;7406468;19;20306;-82
2024/03/17 16:03:03;;;;;;;3.45;2.08;;;;;;;;;;7409371;19;19918;-82
2024/03/17 16:05:50;;;;;;;3.75;1.95;;;;;;;;;;7408689;19;19919;-82
2024/03/17 16:08:42;;;;;;;2.85;1.90;;;;;;;;;;7411194;19;20000;-82
2024/03/17 16:11:29;;;;;;;5.43;2.08;;;;;;;;;;7416054;19;19915;-82
2024/03/17 16:14:16;;;;;;;5.78;2.03;;;;;;;;;;7417780;19;19921;-82
2024/03/17 16:17:01;;;;;;;3.30;2.13;;;;;;;;;;7411268;19;20404;-82
2024/03/17 16:19:54;;;;;;;3.85;2.10;;;;;;;;;;7413450;19;19922;-82
2024/03/17 16:22:39;;;;;;;4.75;1.80;;;;;;;;;;7416097;19;19918;-82
2024/03/17 16:25:26;;;;;;;4.40;1.80;;;;;;;;;;7413407;19;19911;-82
2024/03/17 16:28:11;;;;;;;4.70;1.85;;;;;;;;;;7415511;19;19938;-82
2024/03/17 16:30:58;;;;;;;3.33;1.95;;;;;;;;;;7414650;19;19993;-82
2024/03/17 16:33:43;;;;;;;3.08;2.10;;;;;;;;;;7418457;19;19946;-82
2024/03/17 16:36:32;;;;;;;3.80;2.17;;;;;;;;;;7416482;19;19919;-82
2024/03/17 16:39:22;;;;;;;3.50;2.00;;;;;;;;;;7414940;19;19982;-82
2024/03/17 16:42:09;;;;;;;3.05;2.08;;;;;;;;;;7416973;19;19918;-82
2024/03/17 16:45:00;;;;;;;3.20;2.25;;;;;;;;;;7418053;19;19926;-82
2024/03/17 16:47:44;;;;;;;3.78;1.70;;;;;;;;;;7413344;19;19910;-82
2024/03/17 16:50:32;;;;;;;5.00;2.13;;;;;;;;;;7414999;19;19982;-82